Airfield :
LOGIN :

Register | Disclaimer

   EN    FR    IT 

 










Legend :    VFR   Marginal VFR   IFR   Intensive IFR   Very Intensive IFR
Visi :
Ceiling :
>= 8 km
>= 3000ft
5 to 8 km
1000 to 3000 ft
1500m to 5 km
500 to 1000 ft
800 to 1500m
200 to 500 ft
< 800m
< 200 ft
Symbols :   Thunderstorms  Fog  Heavy snow  Heavy precipitations  Wind > 20 kt
SIGMETs :     Misc.  Thunderstorms  Icing  Turbulence  Mountain Waves  Volcanic Ashes







- Airport Elevation : 302 ft
- IATA code : CGN


EDDK - Cologne Bonn

CURRENT METAR :
  • 210150Z VRB01KT CAVOK 16/14 Q1017 NOSIG

EXPIRED METARs :
  • 210120Z 21004KT 170V250 CAVOK 15/14 Q1016 NOSIG
  • 210050Z 23004KT CAVOK 16/14 Q1016 NOSIG
  • 210020Z VRB03KT CAVOK 17/15 Q1016 NOSIG
  • 202350Z 21001KT CAVOK 17/16 Q1016 NOSIG
  • 202320Z VRB01KT CAVOK 18/16 Q1016 NOSIG

TAF TAF EDDK
Valid from the 21 at 00:00 until the 22 at 06:00 UTC


202300Z 2100/2206 VRB02KT CAVOK
TEMPO 2100/2106 23005KT
BECMG 2106/2109 27007KT
BECMG 2113/2116 33006KT
BECMG 2119/2122 VRB03KT
No reported NOTAMs for that airfield.
1 SIGMET reported for the Langen FIR (EDGG) :
 
Embedded thunderstorms
EDGG SIGMET T01 VALID 210039/210300 EDZF
EDGG LANGEN FIR EMBD TS OBS WI N4945 E01054 - N4924 E01059 - N4838 E00939 - N4809 E00936 - N4736 E00743 - N4818 E00745 - N4859 E00818 - N4953 E00941 - N4945 E01054 TOP FL380 NC FCST AT 0300Z WI N4842 E00823 - N5011 E01143 - N4854 E01314 - N4808 E01040 - N4743 E00835 - N4842 E00823=



MET'MAP, your aeronautical weather chart ! - Copyright ORBIFLY December 2007 - Disclaimer

ORBIFLY MET'MAP TEAM :

Programming & Development : Alexandra Zaïnal
Concept & Development : Baudouin d'Aumeries
Co-Development & Prog : Marc-Olivier Méhu
Technical & hardware support : Manuel Goepfert

Contact : metmap@orbifly.com




SOURCES & CREDITS :

   NOAA